sensor_id;sensor_type;location;lat;lon;timestamp;pressure;altitude;pressure_sealevel;temperature;humidity
49000;BME280;34808;48.144;17.158;2022-10-23T00:03:36;100447.41;;;11.90;100.00
49000;BME280;34808;48.144;17.158;2022-10-23T00:06:03;100334.31;;;11.06;100.00
49000;BME280;34808;48.144;17.158;2022-10-23T00:08:29;100437.25;;;11.72;100.00
49000;BME280;34808;48.144;17.158;2022-10-23T00:10:54;100287.50;;;10.68;100.00
49000;BME280;34808;48.144;17.158;2022-10-23T00:13:20;100294.69;;;10.68;100.00
49000;BME280;34808;48.144;17.158;2022-10-23T00:15:45;100397.63;;;11.33;100.00
49000;BME280;34808;48.144;17.158;2022-10-23T00:18:10;100455.22;;;11.56;100.00
49000;BME280;34808;48.144;17.158;2022-10-23T00:20:36;100431.66;;;11.31;100.00
49000;BME280;34808;48.144;17.158;2022-10-23T00:23:01;100423.13;;;11.42;100.00
49000;BME280;34808;48.144;17.158;2022-10-23T00:25:26;100428.66;;;11.41;100.00
49000;BME280;34808;48.144;17.158;2022-10-23T00:27:52;100426.13;;;11.32;100.00
49000;BME280;34808;48.144;17.158;2022-10-23T00:30:17;100452.72;;;11.48;100.00
49000;BME280;34808;48.144;17.158;2022-10-23T00:32:42;100431.31;;;11.41;100.00
49000;BME280;34808;48.144;17.158;2022-10-23T00:35:08;100472.28;;;11.62;100.00
49000;BME280;34808;48.144;17.158;2022-10-23T00:37:33;100452.00;;;11.39;100.00
49000;BME280;34808;48.144;17.158;2022-10-23T00:39:58;100433.50;;;11.30;100.00
49000;BME280;34808;48.144;17.158;2022-10-23T00:42:24;100432.72;;;11.37;100.00
49000;BME280;34808;48.144;17.158;2022-10-23T00:47:15;100431.91;;;11.36;100.00
49000;BME280;34808;48.144;17.158;2022-10-23T00:49:41;100425.06;;;11.27;100.00
49000;BME280;34808;48.144;17.158;2022-10-23T00:52:09;100420.00;;;11.32;100.00
49000;BME280;34808;48.144;17.158;2022-10-23T00:54:38;100456.38;;;11.47;100.00
49000;BME280;34808;48.144;17.158;2022-10-23T00:57:07;100471.38;;;11.48;100.00
49000;BME280;34808;48.144;17.158;2022-10-23T00:59:35;100438.53;;;11.18;100.00
49000;BME280;34808;48.144;17.158;2022-10-23T01:02:00;100369.13;;;10.76;100.00
49000;BME280;34808;48.144;17.158;2022-10-23T01:04:26;100480.03;;;11.28;100.00
49000;BME280;34808;48.144;17.158;2022-10-23T01:09:43;100395.09;;;10.67;100.00
49000;BME280;34808;48.144;17.158;2022-10-23T01:12:18;100473.44;;;11.02;100.00
49000;BME280;34808;48.144;17.158;2022-10-23T01:15:05;100334.03;;;10.06;100.00
49000;BME280;34808;48.144;17.158;2022-10-23T01:17:40;100464.97;;;10.91;100.00
49000;BME280;34808;48.144;17.158;2022-10-23T01:20:13;100464.59;;;10.94;100.00
49000;BME280;34808;48.144;17.158;2022-10-23T01:28:01;100465.22;;;10.74;100.00
49000;BME280;34808;48.144;17.158;2022-10-23T01:30:29;100451.03;;;10.67;100.00
49000;BME280;34808;48.144;17.158;2022-10-23T01:33:01;100350.50;;;9.95;100.00
49000;BME280;34808;48.144;17.158;2022-10-23T01:35:35;100439.00;;;10.56;100.00
49000;BME280;34808;48.144;17.158;2022-10-23T01:38:13;100254.84;;;9.34;100.00
49000;BME280;34808;48.144;17.158;2022-10-23T01:40:57;100477.78;;;10.81;100.00
49000;BME280;34808;48.144;17.158;2022-10-23T01:43:31;100481.31;;;10.66;100.00
49000;BME280;34808;48.144;17.158;2022-10-23T01:46:03;100497.69;;;10.63;100.00
49000;BME280;34808;48.144;17.158;2022-10-23T01:48:30;100476.28;;;10.41;100.00
49000;BME280;34808;48.144;17.158;2022-10-23T01:51:02;100465.03;;;10.39;100.00
49000;BME280;34808;48.144;17.158;2022-10-23T01:53:30;100410.75;;;10.03;100.00
49000;BME280;34808;48.144;17.158;2022-10-23T01:56:00;100488.50;;;10.50;100.00
49000;BME280;34808;48.144;17.158;2022-10-23T01:58:28;100517.91;;;10.57;100.00
49000;BME280;34808;48.144;17.158;2022-10-23T02:00:57;100475.47;;;10.40;100.00
49000;BME280;34808;48.144;17.158;2022-10-23T02:03:26;100480.78;;;10.40;100.00
49000;BME280;34808;48.144;17.158;2022-10-23T02:05:53;100494.97;;;10.26;100.00
49000;BME280;34808;48.144;17.158;2022-10-23T02:08:18;100474.13;;;10.29;100.00
49000;BME280;34808;48.144;17.158;2022-10-23T02:11:02;100326.44;;;9.35;100.00
49000;BME280;34808;48.144;17.158;2022-10-23T02:16:39;100495.88;;;10.33;100.00
49000;BME280;34808;48.144;17.158;2022-10-23T02:19:30;100461.72;;;10.21;100.00
49000;BME280;34808;48.144;17.158;2022-10-23T02:22:08;100507.50;;;10.47;100.00
49000;BME280;34808;48.144;17.158;2022-10-23T02:24:53;100491.66;;;10.39;100.00
49000;BME280;34808;48.144;17.158;2022-10-23T02:27:25;100494.19;;;10.47;100.00
49000;BME280;34808;48.144;17.158;2022-10-23T02:30:08;100448.78;;;10.18;100.00
49000;BME280;34808;48.144;17.158;2022-10-23T02:32:36;100488.69;;;10.33;100.00
49000;BME280;34808;48.144;17.158;2022-10-23T02:35:04;100464.97;;;10.17;100.00
49000;BME280;34808;48.144;17.158;2022-10-23T02:37:29;100497.72;;;10.32;100.00
49000;BME280;34808;48.144;17.158;2022-10-23T02:39:55;100432.41;;;9.99;100.00
49000;BME280;34808;48.144;17.158;2022-10-23T02:42:26;100474.66;;;10.25;100.00
49000;BME280;34808;48.144;17.158;2022-10-23T02:53:04;100498.72;;;10.31;100.00
49000;BME280;34808;48.144;17.158;2022-10-23T03:01:19;100513.84;;;10.31;100.00
49000;BME280;34808;48.144;17.158;2022-10-23T03:03:52;100457.16;;;10.00;100.00
49000;BME280;34808;48.144;17.158;2022-10-23T03:06:18;100421.25;;;9.74;100.00
49000;BME280;34808;48.144;17.158;2022-10-23T03:08:53;100506.34;;;10.19;100.00
49000;BME280;34808;48.144;17.158;2022-10-23T03:11:21;100503.97;;;10.09;100.00
49000;BME280;34808;48.144;17.158;2022-10-23T03:14:04;100473.13;;;9.85;100.00
49000;BME280;34808;48.144;17.158;2022-10-23T03:16:29;100518.25;;;10.08;100.00
49000;BME280;34808;48.144;17.158;2022-10-23T03:19:05;100371.88;;;9.10;100.00
49000;BME280;34808;48.144;17.158;2022-10-23T03:21:34;100496.63;;;9.81;100.00
49000;BME280;34808;48.144;17.158;2022-10-23T03:24:00;100369.66;;;8.99;100.00
49000;BME280;34808;48.144;17.158;2022-10-23T03:26:25;100384.22;;;9.03;100.00
49000;BME280;34808;48.144;17.158;2022-10-23T03:28:50;100511.47;;;9.75;100.00
49000;BME280;34808;48.144;17.158;2022-10-23T03:31:15;100507.88;;;9.68;100.00
49000;BME280;34808;48.144;17.158;2022-10-23T03:33:41;100316.53;;;8.36;100.00
49000;BME280;34808;48.144;17.158;2022-10-23T03:36:12;100463.59;;;9.21;100.00
49000;BME280;34808;48.144;17.158;2022-10-23T03:38:52;100475.09;;;9.37;100.00
49000;BME280;34808;48.144;17.158;2022-10-23T03:41:17;100504.09;;;9.47;100.00
49000;BME280;34808;48.144;17.158;2022-10-23T03:43:42;100411.09;;;8.85;100.00
49000;BME280;34808;48.144;17.158;2022-10-23T03:46:08;100541.69;;;9.59;100.00
49000;BME280;34808;48.144;17.158;2022-10-23T03:48:36;100536.31;;;9.52;100.00
49000;BME280;34808;48.144;17.158;2022-10-23T03:51:04;100355.03;;;8.32;100.00
49000;BME280;34808;48.144;17.158;2022-10-23T03:53:30;100434.47;;;8.66;100.00
49000;BME280;34808;48.144;17.158;2022-10-23T03:55:55;100422.84;;;8.67;100.00
49000;BME280;34808;48.144;17.158;2022-10-23T03:58:20;100448.34;;;8.76;100.00
49000;BME280;34808;48.144;17.158;2022-10-23T04:00:46;100542.25;;;9.31;100.00
49000;BME280;34808;48.144;17.158;2022-10-23T04:03:11;100378.34;;;8.22;100.00
49000;BME280;34808;48.144;17.158;2022-10-23T04:05:36;100477.63;;;8.91;100.00
49000;BME280;34808;48.144;17.158;2022-10-23T04:08:03;100411.03;;;8.46;100.00
49000;BME280;34808;48.144;17.158;2022-10-23T04:10:28;100539.66;;;9.22;100.00
49000;BME280;34808;48.144;17.158;2022-10-23T04:12:53;100487.72;;;8.96;100.00
49000;BME280;34808;48.144;17.158;2022-10-23T04:15:19;100531.34;;;9.25;100.00
49000;BME280;34808;48.144;17.158;2022-10-23T04:17:44;100503.88;;;9.10;100.00
49000;BME280;34808;48.144;17.158;2022-10-23T04:20:09;100505.13;;;8.99;100.00
49000;BME280;34808;48.144;17.158;2022-10-23T04:22:35;100542.44;;;9.29;100.00
49000;BME280;34808;48.144;17.158;2022-10-23T04:25:00;100348.75;;;8.01;100.00
49000;BME280;34808;48.144;17.158;2022-10-23T04:27:25;100543.63;;;9.27;100.00
49000;BME280;34808;48.144;17.158;2022-10-23T04:29:51;100532.47;;;9.08;100.00
49000;BME280;34808;48.144;17.158;2022-10-23T04:32:16;100537.31;;;9.04;100.00
49000;BME280;34808;48.144;17.158;2022-10-23T04:34:41;100394.69;;;8.25;100.00
49000;BME280;34808;48.144;17.158;2022-10-23T04:37:06;100527.03;;;9.01;100.00
49000;BME280;34808;48.144;17.158;2022-10-23T04:39:32;100549.38;;;9.15;100.00
49000;BME280;34808;48.144;17.158;2022-10-23T04:41:57;100515.75;;;8.99;100.00
49000;BME280;34808;48.144;17.158;2022-10-23T04:44:22;100540.94;;;9.11;100.00
49000;BME280;34808;48.144;17.158;2022-10-23T04:46:47;100528.50;;;9.03;100.00
49000;BME280;34808;48.144;17.158;2022-10-23T04:49:13;100539.53;;;9.16;100.00
49000;BME280;34808;48.144;17.158;2022-10-23T04:51:38;100545.97;;;9.21;100.00
49000;BME280;34808;48.144;17.158;2022-10-23T04:54:03;100521.97;;;9.14;100.00
49000;BME280;34808;48.144;17.158;2022-10-23T04:56:29;100533.34;;;9.23;100.00
49000;BME280;34808;48.144;17.158;2022-10-23T04:58:54;100550.94;;;9.24;100.00
49000;BME280;34808;48.144;17.158;2022-10-23T05:01:19;100361.44;;;8.14;100.00
49000;BME280;34808;48.144;17.158;2022-10-23T05:03:45;100517.38;;;9.08;100.00
49000;BME280;34808;48.144;17.158;2022-10-23T05:06:10;100537.72;;;9.16;100.00
49000;BME280;34808;48.144;17.158;2022-10-23T05:08:35;100410.81;;;8.24;100.00
49000;BME280;34808;48.144;17.158;2022-10-23T05:11:01;100390.00;;;8.12;100.00
49000;BME280;34808;48.144;17.158;2022-10-23T05:13:26;100527.50;;;9.05;100.00
49000;BME280;34808;48.144;17.158;2022-10-23T05:15:52;100549.47;;;9.22;100.00
49000;BME280;34808;48.144;17.158;2022-10-23T05:18:22;100548.47;;;9.23;100.00
49000;BME280;34808;48.144;17.158;2022-10-23T05:20:49;100534.44;;;9.14;100.00
49000;BME280;34808;48.144;17.158;2022-10-23T05:23:19;100422.00;;;8.43;100.00
49000;BME280;34808;48.144;17.158;2022-10-23T05:25:46;100399.84;;;8.27;100.00
49000;BME280;34808;48.144;17.158;2022-10-23T05:28:12;100564.22;;;9.24;100.00
49000;BME280;34808;48.144;17.158;2022-10-23T05:30:37;100543.31;;;9.21;100.00
49000;BME280;34808;48.144;17.158;2022-10-23T05:33:03;100567.00;;;9.31;100.00
49000;BME280;34808;48.144;17.158;2022-10-23T05:35:29;100543.22;;;9.14;100.00
49000;BME280;34808;48.144;17.158;2022-10-23T05:37:56;100552.97;;;9.22;100.00
49000;BME280;34808;48.144;17.158;2022-10-23T05:40:22;100584.97;;;9.29;100.00
49000;BME280;34808;48.144;17.158;2022-10-23T05:42:48;100433.78;;;8.40;100.00
49000;BME280;34808;48.144;17.158;2022-10-23T05:45:13;100568.84;;;9.31;100.00
49000;BME280;34808;48.144;17.158;2022-10-23T05:47:39;100419.69;;;8.40;100.00
49000;BME280;34808;48.144;17.158;2022-10-23T05:50:04;100565.47;;;9.37;100.00
49000;BME280;34808;48.144;17.158;2022-10-23T05:52:30;100553.72;;;9.31;100.00
49000;BME280;34808;48.144;17.158;2022-10-23T05:54:55;100513.88;;;9.08;100.00
49000;BME280;34808;48.144;17.158;2022-10-23T05:57:20;100459.16;;;8.75;100.00
49000;BME280;34808;48.144;17.158;2022-10-23T05:59:46;100458.00;;;8.69;100.00
49000;BME280;34808;48.144;17.158;2022-10-23T06:02:11;100561.69;;;9.31;100.00
49000;BME280;34808;48.144;17.158;2022-10-23T06:04:36;100566.38;;;9.29;100.00
49000;BME280;34808;48.144;17.158;2022-10-23T06:07:02;100567.72;;;9.25;100.00
49000;BME280;34808;48.144;17.158;2022-10-23T06:09:28;100585.94;;;9.37;100.00
49000;BME280;34808;48.144;17.158;2022-10-23T06:11:53;100618.00;;;9.35;100.00
49000;BME280;34808;48.144;17.158;2022-10-23T06:14:18;100573.03;;;9.25;100.00
49000;BME280;34808;48.144;17.158;2022-10-23T06:16:44;100440.28;;;8.37;100.00
49000;BME280;34808;48.144;17.158;2022-10-23T06:19:10;100340.63;;;7.71;100.00
49000;BME280;34808;48.144;17.158;2022-10-23T06:21:37;100586.63;;;9.30;100.00
49000;BME280;34808;48.144;17.158;2022-10-23T06:24:04;100576.75;;;9.16;100.00
49000;BME280;34808;48.144;17.158;2022-10-23T06:26:29;100453.28;;;8.47;100.00
49000;BME280;34808;48.144;17.158;2022-10-23T06:28:55;100576.34;;;9.27;100.00
49000;BME280;34808;48.144;17.158;2022-10-23T06:31:20;100602.66;;;9.45;100.00
49000;BME280;34808;48.144;17.158;2022-10-23T06:33:50;100590.91;;;9.40;100.00
49000;BME280;34808;48.144;17.158;2022-10-23T06:36:16;100416.59;;;8.27;100.00
49000;BME280;34808;48.144;17.158;2022-10-23T06:38:41;100558.09;;;9.24;100.00
49000;BME280;34808;48.144;17.158;2022-10-23T06:41:13;100440.84;;;8.48;100.00
49000;BME280;34808;48.144;17.158;2022-10-23T06:43:40;100576.41;;;9.42;100.00
49000;BME280;34808;48.144;17.158;2022-10-23T06:46:06;100592.88;;;9.38;100.00
49000;BME280;34808;48.144;17.158;2022-10-23T06:48:33;100587.56;;;9.38;100.00
49000;BME280;34808;48.144;17.158;2022-10-23T06:51:07;100586.38;;;9.40;100.00
49000;BME280;34808;48.144;17.158;2022-10-23T06:53:33;100602.94;;;9.51;100.00
49000;BME280;34808;48.144;17.158;2022-10-23T06:56:00;100607.72;;;9.55;100.00
49000;BME280;34808;48.144;17.158;2022-10-23T06:58:26;100572.31;;;9.31;100.00
49000;BME280;34808;48.144;17.158;2022-10-23T07:00:52;100228.69;;;7.20;100.00
49000;BME280;34808;48.144;17.158;2022-10-23T07:03:18;100462.69;;;8.67;100.00
49000;BME280;34808;48.144;17.158;2022-10-23T07:05:43;100586.63;;;9.54;100.00
49000;BME280;34808;48.144;17.158;2022-10-23T07:08:12;100450.41;;;8.66;100.00
49000;BME280;34808;48.144;17.158;2022-10-23T07:10:37;100596.00;;;9.65;100.00
49000;BME280;34808;48.144;17.158;2022-10-23T07:13:04;100431.66;;;8.67;100.00
49000;BME280;34808;48.144;17.158;2022-10-23T07:15:29;100587.22;;;9.64;100.00
49000;BME280;34808;48.144;17.158;2022-10-23T07:17:54;100565.00;;;9.57;100.00
49000;BME280;34808;48.144;17.158;2022-10-23T07:20:20;100579.16;;;9.73;100.00
49000;BME280;34808;48.144;17.158;2022-10-23T07:22:53;100591.72;;;9.79;100.00
49000;BME280;34808;48.144;17.158;2022-10-23T07:25:20;100555.06;;;9.51;100.00
49000;BME280;34808;48.144;17.158;2022-10-23T07:27:46;100456.50;;;8.98;100.00
49000;BME280;34808;48.144;17.158;2022-10-23T07:30:12;100512.50;;;9.35;100.00
49000;BME280;34808;48.144;17.158;2022-10-23T07:32:38;100560.16;;;9.61;100.00
49000;BME280;34808;48.144;17.158;2022-10-23T07:35:03;100565.78;;;9.81;100.00
49000;BME280;34808;48.144;17.158;2022-10-23T07:37:29;100575.16;;;9.92;100.00
49000;BME280;34808;48.144;17.158;2022-10-23T07:39:54;100563.69;;;9.92;100.00
49000;BME280;34808;48.144;17.158;2022-10-23T07:42:20;100553.31;;;9.97;100.00
49000;BME280;34808;48.144;17.158;2022-10-23T07:44:45;100575.66;;;10.26;100.00
49000;BME280;34808;48.144;17.158;2022-10-23T07:47:11;100581.69;;;10.20;100.00
49000;BME280;34808;48.144;17.158;2022-10-23T07:49:36;100572.41;;;10.31;100.00
49000;BME280;34808;48.144;17.158;2022-10-23T07:52:03;100549.66;;;10.28;100.00
49000;BME280;34808;48.144;17.158;2022-10-23T07:54:34;100573.34;;;10.38;100.00
49000;BME280;34808;48.144;17.158;2022-10-23T07:56:59;100405.34;;;9.35;100.00
49000;BME280;34808;48.144;17.158;2022-10-23T07:59:25;100574.53;;;10.51;100.00
49000;BME280;34808;48.144;17.158;2022-10-23T08:01:55;100408.31;;;9.55;100.00
49000;BME280;34808;48.144;17.158;2022-10-23T08:04:21;100559.38;;;10.66;100.00
49000;BME280;34808;48.144;17.158;2022-10-23T08:06:47;100422.50;;;9.78;100.00
49000;BME280;34808;48.144;17.158;2022-10-23T08:09:13;100552.84;;;10.69;100.00
49000;BME280;34808;48.144;17.158;2022-10-23T08:11:38;100524.94;;;10.50;100.00
49000;BME280;34808;48.144;17.158;2022-10-23T08:14:04;100547.91;;;10.66;100.00
49000;BME280;34808;48.144;17.158;2022-10-23T08:16:35;100591.78;;;10.85;100.00
49000;BME280;34808;48.144;17.158;2022-10-23T08:19:01;100560.72;;;10.77;100.00
49000;BME280;34808;48.144;17.158;2022-10-23T08:21:26;100458.72;;;10.09;100.00
49000;BME280;34808;48.144;17.158;2022-10-23T08:23:53;100583.75;;;11.01;100.00
49000;BME280;34808;48.144;17.158;2022-10-23T08:26:19;100587.78;;;10.96;100.00
49000;BME280;34808;48.144;17.158;2022-10-23T08:28:44;100573.91;;;11.01;100.00
49000;BME280;34808;48.144;17.158;2022-10-23T08:31:12;100575.00;;;11.07;100.00
49000;BME280;34808;48.144;17.158;2022-10-23T08:33:38;100600.81;;;11.06;100.00
49000;BME280;34808;48.144;17.158;2022-10-23T08:36:04;100556.94;;;10.87;100.00
49000;BME280;34808;48.144;17.158;2022-10-23T08:38:30;100448.34;;;10.30;100.00
49000;BME280;34808;48.144;17.158;2022-10-23T08:40:55;100605.97;;;11.30;100.00
49000;BME280;34808;48.144;17.158;2022-10-23T08:43:29;100435.28;;;10.35;100.00
49000;BME280;34808;48.144;17.158;2022-10-23T08:46:05;100577.72;;;11.36;100.00
49000;BME280;34808;48.144;17.158;2022-10-23T08:48:37;100580.13;;;11.30;100.00
49000;BME280;34808;48.144;17.158;2022-10-23T08:51:39;100574.72;;;11.46;100.00
49000;BME280;34808;48.144;17.158;2022-10-23T09:01:22;100596.06;;;11.46;100.00
49000;BME280;34808;48.144;17.158;2022-10-23T09:04:10;100569.78;;;11.20;100.00
49000;BME280;34808;48.144;17.158;2022-10-23T09:12:21;100588.59;;;11.34;100.00
49000;BME280;34808;48.144;17.158;2022-10-23T09:17:34;100592.84;;;11.28;100.00
49000;BME280;34808;48.144;17.158;2022-10-23T09:22:39;100579.63;;;11.20;100.00
49000;BME280;34808;48.144;17.158;2022-10-23T09:25:27;100500.59;;;10.68;100.00
49000;BME280;34808;48.144;17.158;2022-10-23T09:27:58;100446.00;;;10.42;100.00
49000;BME280;34808;48.144;17.158;2022-10-23T09:30:44;100583.88;;;11.36;100.00
49000;BME280;34808;48.144;17.158;2022-10-23T09:33:14;100466.66;;;10.55;100.00
49000;BME280;34808;48.144;17.158;2022-10-23T09:38:50;100583.13;;;11.20;100.00
49000;BME280;34808;48.144;17.158;2022-10-23T09:41:22;100460.94;;;10.43;100.00
49000;BME280;34808;48.144;17.158;2022-10-23T09:46:43;100560.78;;;11.22;100.00
49000;BME280;34808;48.144;17.158;2022-10-23T09:49:29;100612.22;;;11.37;100.00
49000;BME280;34808;48.144;17.158;2022-10-23T09:52:22;100570.16;;;11.17;100.00
49000;BME280;34808;48.144;17.158;2022-10-23T09:54:57;100553.53;;;11.15;100.00
49000;BME280;34808;48.144;17.158;2022-10-23T10:00:01;100555.91;;;11.25;100.00
49000;BME280;34808;48.144;17.158;2022-10-23T10:02:33;100499.03;;;10.96;100.00
49000;BME280;34808;48.144;17.158;2022-10-23T10:04:59;100546.47;;;11.29;100.00
49000;BME280;34808;48.144;17.158;2022-10-23T10:07:35;100518.50;;;11.18;100.00
49000;BME280;34808;48.144;17.158;2022-10-23T10:10:09;100371.53;;;10.27;100.00
49000;BME280;34808;48.144;17.158;2022-10-23T10:12:48;100535.50;;;11.17;100.00
49000;BME280;34808;48.144;17.158;2022-10-23T10:15:22;100515.31;;;11.08;100.00
49000;BME280;34808;48.144;17.158;2022-10-23T10:20:53;100410.94;;;10.53;100.00
49000;BME280;34808;48.144;17.158;2022-10-23T10:24:10;100533.03;;;11.38;100.00
49000;BME280;34808;48.144;17.158;2022-10-23T10:26:37;100487.28;;;11.12;100.00
49000;BME280;34808;48.144;17.158;2022-10-23T10:45:41;100521.03;;;11.27;100.00
49000;BME280;34808;48.144;17.158;2022-10-23T10:53:21;100510.44;;;11.12;100.00
49000;BME280;34808;48.144;17.158;2022-10-23T10:55:52;100505.63;;;11.22;100.00
49000;BME280;34808;48.144;17.158;2022-10-23T10:58:38;100505.50;;;11.30;100.00
49000;BME280;34808;48.144;17.158;2022-10-23T11:01:13;100415.19;;;10.70;100.00
49000;BME280;34808;48.144;17.158;2022-10-23T11:03:51;100497.13;;;11.12;100.00
49000;BME280;34808;48.144;17.158;2022-10-23T11:06:21;100388.41;;;10.56;100.00
49000;BME280;34808;48.144;17.158;2022-10-23T11:08:47;100446.38;;;10.98;100.00
49000;BME280;34808;48.144;17.158;2022-10-23T11:11:18;100358.78;;;10.44;100.00
49000;BME280;34808;48.144;17.158;2022-10-23T11:13:45;100489.09;;;11.34;100.00
49000;BME280;34808;48.144;17.158;2022-10-23T11:16:18;100370.00;;;10.61;100.00
49000;BME280;34808;48.144;17.158;2022-10-23T11:18:53;100491.81;;;11.40;100.00
49000;BME280;34808;48.144;17.158;2022-10-23T11:22:04;100489.91;;;11.56;100.00
49000;BME280;34808;48.144;17.158;2022-10-23T11:27:40;100486.34;;;11.49;100.00
49000;BME280;34808;48.144;17.158;2022-10-23T11:33:53;100473.44;;;11.52;100.00
49000;BME280;34808;48.144;17.158;2022-10-23T11:36:48;100481.72;;;11.64;100.00
49000;BME280;34808;48.144;17.158;2022-10-23T11:39:28;100486.63;;;11.61;100.00
49000;BME280;34808;48.144;17.158;2022-10-23T11:41:57;100448.22;;;11.55;100.00
49000;BME280;34808;48.144;17.158;2022-10-23T11:44:39;100445.38;;;11.57;100.00
49000;BME280;34808;48.144;17.158;2022-10-23T11:47:27;100464.66;;;11.59;100.00
49000;BME280;34808;48.144;17.158;2022-10-23T11:52:30;100421.81;;;11.31;100.00
49000;BME280;34808;48.144;17.158;2022-10-23T11:55:16;100452.78;;;11.61;100.00
49000;BME280;34808;48.144;17.158;2022-10-23T11:57:44;100403.34;;;11.30;100.00
49000;BME280;34808;48.144;17.158;2022-10-23T12:00:20;100439.38;;;11.48;100.00
49000;BME280;34808;48.144;17.158;2022-10-23T12:02:50;100406.66;;;11.32;100.00
49000;BME280;34808;48.144;17.158;2022-10-23T12:05:35;100445.00;;;11.67;100.00
49000;BME280;34808;48.144;17.158;2022-10-23T12:08:07;100415.78;;;11.51;100.00
49000;BME280;34808;48.144;17.158;2022-10-23T12:10:46;100423.03;;;11.64;100.00
49000;BME280;34808;48.144;17.158;2022-10-23T12:13:29;100423.03;;;11.64;100.00
49000;BME280;34808;48.144;17.158;2022-10-23T12:15:54;100353.09;;;11.27;100.00
49000;BME280;34808;48.144;17.158;2022-10-23T12:18:20;100418.31;;;11.67;100.00
49000;BME280;34808;48.144;17.158;2022-10-23T12:20:55;100301.72;;;11.04;100.00
49000;BME280;34808;48.144;17.158;2022-10-23T12:29:00;100246.94;;;10.95;100.00
49000;BME280;34808;48.144;17.158;2022-10-23T12:31:53;100378.59;;;11.85;100.00
49000;BME280;34808;48.144;17.158;2022-10-23T12:37:23;100385.19;;;11.90;100.00
49000;BME280;34808;48.144;17.158;2022-10-23T12:39:53;100374.53;;;11.90;100.00
49000;BME280;34808;48.144;17.158;2022-10-23T12:42:21;100358.84;;;11.73;100.00
49000;BME280;34808;48.144;17.158;2022-10-23T12:47:23;100319.03;;;11.71;100.00
49000;BME280;34808;48.144;17.158;2022-10-23T12:49:49;100289.44;;;11.52;100.00
49000;BME280;34808;48.144;17.158;2022-10-23T12:52:17;100225.72;;;11.22;100.00
49000;BME280;34808;48.144;17.158;2022-10-23T12:54:43;100333.50;;;11.91;100.00
49000;BME280;34808;48.144;17.158;2022-10-23T12:59:53;100040.63;;;10.19;100.00
49000;BME280;34808;48.144;17.158;2022-10-23T13:02:27;100316.44;;;11.92;100.00
49000;BME280;34808;48.144;17.158;2022-10-23T13:04:54;100341.91;;;12.01;100.00
49000;BME280;34808;48.144;17.158;2022-10-23T13:07:26;100328.16;;;12.04;100.00
49000;BME280;34808;48.144;17.158;2022-10-23T13:09:53;100329.19;;;12.10;100.00
49000;BME280;34808;48.144;17.158;2022-10-23T13:12:31;100325.72;;;12.03;100.00
49000;BME280;34808;48.144;17.158;2022-10-23T13:14:58;100333.09;;;12.07;100.00
49000;BME280;34808;48.144;17.158;2022-10-23T13:22:43;100330.84;;;12.04;100.00
49000;BME280;34808;48.144;17.158;2022-10-23T13:28:23;100268.16;;;11.80;100.00
49000;BME280;34808;48.144;17.158;2022-10-23T13:38:42;100210.38;;;11.31;100.00
49000;BME280;34808;48.144;17.158;2022-10-23T13:41:18;100311.97;;;12.06;100.00
49000;BME280;34808;48.144;17.158;2022-10-23T13:43:45;100326.75;;;12.08;100.00
49000;BME280;34808;48.144;17.158;2022-10-23T13:46:13;100312.19;;;12.11;100.00
49000;BME280;34808;48.144;17.158;2022-10-23T13:48:39;100290.19;;;12.02;100.00
49000;BME280;34808;48.144;17.158;2022-10-23T13:51:19;100221.34;;;11.57;100.00
49000;BME280;34808;48.144;17.158;2022-10-23T13:53:45;100135.69;;;11.17;100.00
49000;BME280;34808;48.144;17.158;2022-10-23T13:56:11;100156.84;;;11.32;100.00
49000;BME280;34808;48.144;17.158;2022-10-23T13:58:37;100267.41;;;12.06;100.00
49000;BME280;34808;48.144;17.158;2022-10-23T14:01:03;100135.13;;;11.36;100.00
49000;BME280;34808;48.144;17.158;2022-10-23T14:03:28;100150.31;;;11.49;100.00
49000;BME280;34808;48.144;17.158;2022-10-23T14:05:54;100249.16;;;12.17;100.00
49000;BME280;34808;48.144;17.158;2022-10-23T14:08:20;100165.94;;;11.59;100.00
49000;BME280;34808;48.144;17.158;2022-10-23T14:10:46;100125.53;;;11.41;100.00
49000;BME280;34808;48.144;17.158;2022-10-23T14:13:11;100212.56;;;11.90;100.00
49000;BME280;34808;48.144;17.158;2022-10-23T14:15:37;100268.28;;;12.34;100.00
49000;BME280;34808;48.144;17.158;2022-10-23T14:18:03;100269.31;;;12.40;100.00
49000;BME280;34808;48.144;17.158;2022-10-23T14:20:29;100152.41;;;11.74;100.00
49000;BME280;34808;48.144;17.158;2022-10-23T14:22:54;100168.44;;;11.81;100.00
49000;BME280;34808;48.144;17.158;2022-10-23T14:25:20;100176.66;;;11.93;100.00
49000;BME280;34808;48.144;17.158;2022-10-23T14:27:46;100264.19;;;12.52;100.00
49000;BME280;34808;48.144;17.158;2022-10-23T14:30:11;100262.31;;;12.53;100.00
49000;BME280;34808;48.144;17.158;2022-10-23T14:32:37;100214.28;;;12.25;100.00
49000;BME280;34808;48.144;17.158;2022-10-23T14:35:02;100212.22;;;12.27;100.00
49000;BME280;34808;48.144;17.158;2022-10-23T14:37:29;100251.84;;;12.51;100.00
49000;BME280;34808;48.144;17.158;2022-10-23T14:39:55;100271.75;;;12.69;100.00
49000;BME280;34808;48.144;17.158;2022-10-23T14:42:20;100264.59;;;12.63;100.00
49000;BME280;34808;48.144;17.158;2022-10-23T14:44:49;100249.81;;;12.53;100.00